sensor_id;sensor_type;location;lat;lon;timestamp;temperature;humidity
44573;DHT22;31762;45.420;10.072;2022-07-23T00:04:54;30.50;97.50
44573;DHT22;31762;45.420;10.072;2022-07-23T00:09:56;30.40;96.80
44573;DHT22;31762;45.420;10.072;2022-07-23T00:14:58;30.10;97.60
44573;DHT22;31762;45.420;10.072;2022-07-23T00:20:00;30.10;97.60
44573;DHT22;31762;45.420;10.072;2022-07-23T00:25:02;29.90;97.90
44573;DHT22;31762;45.420;10.072;2022-07-23T00:30:24;30.20;98.40
44573;DHT22;31762;45.420;10.072;2022-07-23T00:35:30;30.10;98.60
44573;DHT22;31762;45.420;10.072;2022-07-23T00:40:32;30.00;98.60
44573;DHT22;31762;45.420;10.072;2022-07-23T00:45:33;29.80;98.90
44573;DHT22;31762;45.420;10.072;2022-07-23T00:50:35;29.40;99.90
44573;DHT22;31762;45.420;10.072;2022-07-23T00:55:38;29.50;99.90
44573;DHT22;31762;45.420;10.072;2022-07-23T01:00:40;29.30;99.90
44573;DHT22;31762;45.420;10.072;2022-07-23T01:05:42;28.90;99.90
44573;DHT22;31762;45.420;10.072;2022-07-23T01:10:43;28.80;99.90
44573;DHT22;31762;45.420;10.072;2022-07-23T01:15:45;29.10;99.90
44573;DHT22;31762;45.420;10.072;2022-07-23T01:20:47;29.50;99.90
44573;DHT22;31762;45.420;10.072;2022-07-23T01:25:52;29.30;99.90
44573;DHT22;31762;45.420;10.072;2022-07-23T01:30:54;29.20;99.90
44573;DHT22;31762;45.420;10.072;2022-07-23T01:35:56;29.50;99.90
44573;DHT22;31762;45.420;10.072;2022-07-23T01:40:58;28.80;99.90
44573;DHT22;31762;45.420;10.072;2022-07-23T01:46:01;28.90;99.90
44573;DHT22;31762;45.420;10.072;2022-07-23T01:51:03;29.10;99.90
44573;DHT22;31762;45.420;10.072;2022-07-23T01:56:05;28.80;99.90
44573;DHT22;31762;45.420;10.072;2022-07-23T02:01:07;28.90;99.90
44573;DHT22;31762;45.420;10.072;2022-07-23T02:06:09;29.00;99.90
44573;DHT22;31762;45.420;10.072;2022-07-23T02:11:10;28.90;99.90
44573;DHT22;31762;45.420;10.072;2022-07-23T02:16:12;29.00;99.90
44573;DHT22;31762;45.420;10.072;2022-07-23T02:21:14;28.80;99.90
44573;DHT22;31762;45.420;10.072;2022-07-23T02:26:16;29.20;99.90
44573;DHT22;31762;45.420;10.072;2022-07-23T02:31:21;29.10;99.90
44573;DHT22;31762;45.420;10.072;2022-07-23T02:36:23;29.50;99.90
44573;DHT22;31762;45.420;10.072;2022-07-23T02:41:25;29.20;99.90
44573;DHT22;31762;45.420;10.072;2022-07-23T02:46:27;29.20;99.90
44573;DHT22;31762;45.420;10.072;2022-07-23T02:51:28;28.80;99.90
44573;DHT22;31762;45.420;10.072;2022-07-23T02:56:31;28.70;99.90
44573;DHT22;31762;45.420;10.072;2022-07-23T03:01:33;28.90;99.90
44573;DHT22;31762;45.420;10.072;2022-07-23T03:06:35;28.20;99.90
44573;DHT22;31762;45.420;10.072;2022-07-23T03:11:37;27.90;99.90
44573;DHT22;31762;45.420;10.072;2022-07-23T03:16:39;27.90;99.90
44573;DHT22;31762;45.420;10.072;2022-07-23T03:21:40;28.20;99.90
44573;DHT22;31762;45.420;10.072;2022-07-23T03:26:42;28.30;99.90
44573;DHT22;31762;45.420;10.072;2022-07-23T03:31:44;28.10;99.90
44573;DHT22;31762;45.420;10.072;2022-07-23T03:36:46;28.30;99.90
44573;DHT22;31762;45.420;10.072;2022-07-23T03:41:48;28.30;99.90
44573;DHT22;31762;45.420;10.072;2022-07-23T03:46:49;28.10;99.90
44573;DHT22;31762;45.420;10.072;2022-07-23T03:51:51;28.30;99.90
44573;DHT22;31762;45.420;10.072;2022-07-23T03:56:53;28.40;99.90
44573;DHT22;31762;45.420;10.072;2022-07-23T04:01:55;28.10;99.90
44573;DHT22;31762;45.420;10.072;2022-07-23T04:06:57;28.60;99.90
44573;DHT22;31762;45.420;10.072;2022-07-23T04:11:59;28.40;99.90
44573;DHT22;31762;45.420;10.072;2022-07-23T04:17:01;27.90;99.90
44573;DHT22;31762;45.420;10.072;2022-07-23T04:22:03;28.00;99.90
44573;DHT22;31762;45.420;10.072;2022-07-23T04:27:05;27.40;99.90
44573;DHT22;31762;45.420;10.072;2022-07-23T04:32:07;27.50;99.90
44573;DHT22;31762;45.420;10.072;2022-07-23T04:37:08;27.50;99.90
44573;DHT22;31762;45.420;10.072;2022-07-23T04:42:10;27.70;99.90
44573;DHT22;31762;45.420;10.072;2022-07-23T04:47:12;27.90;99.90
44573;DHT22;31762;45.420;10.072;2022-07-23T04:52:14;27.80;99.90
44573;DHT22;31762;45.420;10.072;2022-07-23T04:57:16;28.30;99.90
44573;DHT22;31762;45.420;10.072;2022-07-23T05:02:18;28.20;99.90
44573;DHT22;31762;45.420;10.072;2022-07-23T05:07:19;28.10;99.90
44573;DHT22;31762;45.420;10.072;2022-07-23T05:12:21;28.50;99.90
44573;DHT22;31762;45.420;10.072;2022-07-23T05:17:23;28.80;99.90
44573;DHT22;31762;45.420;10.072;2022-07-23T05:22:25;28.80;99.90
44573;DHT22;31762;45.420;10.072;2022-07-23T05:27:27;28.70;99.90
44573;DHT22;31762;45.420;10.072;2022-07-23T05:32:31;29.10;99.90
44573;DHT22;31762;45.420;10.072;2022-07-23T05:37:33;29.00;99.90
44573;DHT22;31762;45.420;10.072;2022-07-23T05:42:36;29.40;99.90
44573;DHT22;31762;45.420;10.072;2022-07-23T05:47:46;29.60;99.90
44573;DHT22;31762;45.420;10.072;2022-07-23T05:52:48;29.90;99.90
44573;DHT22;31762;45.420;10.072;2022-07-23T05:57:50;29.90;99.90
44573;DHT22;31762;45.420;10.072;2022-07-23T06:02:52;30.10;99.90
44573;DHT22;31762;45.420;10.072;2022-07-23T06:07:56;30.50;99.90
44573;DHT22;31762;45.420;10.072;2022-07-23T06:12:58;30.50;99.90
44573;DHT22;31762;45.420;10.072;2022-07-23T06:18:03;30.20;99.90
44573;DHT22;31762;45.420;10.072;2022-07-23T06:23:05;30.50;99.90
44573;DHT22;31762;45.420;10.072;2022-07-23T06:28:07;30.50;99.90
44573;DHT22;31762;45.420;10.072;2022-07-23T06:33:08;30.70;99.90
44573;DHT22;31762;45.420;10.072;2022-07-23T06:38:10;30.80;99.90
44573;DHT22;31762;45.420;10.072;2022-07-23T06:43:12;30.20;99.90
44573;DHT22;31762;45.420;10.072;2022-07-23T06:48:14;30.60;99.90
44573;DHT22;31762;45.420;10.072;2022-07-23T06:53:15;30.80;99.90
44573;DHT22;31762;45.420;10.072;2022-07-23T06:58:17;30.90;99.90
44573;DHT22;31762;45.420;10.072;2022-07-23T07:03:19;30.80;99.90
44573;DHT22;31762;45.420;10.072;2022-07-23T07:08:21;31.20;99.90
44573;DHT22;31762;45.420;10.072;2022-07-23T07:13:23;31.20;99.90
44573;DHT22;31762;45.420;10.072;2022-07-23T07:18:24;31.50;99.90
44573;DHT22;31762;45.420;10.072;2022-07-23T07:23:28;31.60;99.90
44573;DHT22;31762;45.420;10.072;2022-07-23T07:28:30;31.70;99.90
44573;DHT22;31762;45.420;10.072;2022-07-23T07:33:31;31.80;99.90
44573;DHT22;31762;45.420;10.072;2022-07-23T07:38:33;31.90;99.90
44573;DHT22;31762;45.420;10.072;2022-07-23T07:43:36;31.90;99.90
44573;DHT22;31762;45.420;10.072;2022-07-23T07:48:37;32.20;99.90
44573;DHT22;31762;45.420;10.072;2022-07-23T07:53:39;32.10;99.90
44573;DHT22;31762;45.420;10.072;2022-07-23T07:58:42;32.20;99.90
44573;DHT22;31762;45.420;10.072;2022-07-23T08:03:44;32.50;99.90
44573;DHT22;31762;45.420;10.072;2022-07-23T08:08:46;32.80;99.90
44573;DHT22;31762;45.420;10.072;2022-07-23T08:13:48;32.60;99.90
44573;DHT22;31762;45.420;10.072;2022-07-23T08:18:50;33.00;99.90
44573;DHT22;31762;45.420;10.072;2022-07-23T08:23:52;33.10;99.90
44573;DHT22;31762;45.420;10.072;2022-07-23T08:28:54;33.30;99.90
44573;DHT22;31762;45.420;10.072;2022-07-23T08:33:55;32.90;99.90
44573;DHT22;31762;45.420;10.072;2022-07-23T08:38:58;33.40;99.90
44573;DHT22;31762;45.420;10.072;2022-07-23T08:44:00;33.40;99.90
44573;DHT22;31762;45.420;10.072;2022-07-23T08:49:03;33.00;99.90
44573;DHT22;31762;45.420;10.072;2022-07-23T08:54:06;33.50;97.90
44573;DHT22;31762;45.420;10.072;2022-07-23T08:59:08;33.30;99.30
44573;DHT22;31762;45.420;10.072;2022-07-23T09:04:09;34.00;98.80
44573;DHT22;31762;45.420;10.072;2022-07-23T09:09:18;33.60;98.30
44573;DHT22;31762;45.420;10.072;2022-07-23T09:14:39;33.80;98.60
44573;DHT22;31762;45.420;10.072;2022-07-23T09:19:43;33.90;97.80
44573;DHT22;31762;45.420;10.072;2022-07-23T09:30:09;34.20;96.00
44573;DHT22;31762;45.420;10.072;2022-07-23T09:35:11;34.00;95.00
44573;DHT22;31762;45.420;10.072;2022-07-23T09:40:13;34.60;94.10
44573;DHT22;31762;45.420;10.072;2022-07-23T09:45:15;35.20;92.30
44573;DHT22;31762;45.420;10.072;2022-07-23T09:50:19;34.80;92.30
44573;DHT22;31762;45.420;10.072;2022-07-23T09:55:32;34.60;94.80
44573;DHT22;31762;45.420;10.072;2022-07-23T10:00:35;35.20;94.50
44573;DHT22;31762;45.420;10.072;2022-07-23T10:05:37;34.60;94.60
44573;DHT22;31762;45.420;10.072;2022-07-23T10:10:40;35.20;94.10
44573;DHT22;31762;45.420;10.072;2022-07-23T10:15:42;34.90;93.60
44573;DHT22;31762;45.420;10.072;2022-07-23T10:20:44;34.60;93.50
44573;DHT22;31762;45.420;10.072;2022-07-23T10:26:04;35.50;93.50
44573;DHT22;31762;45.420;10.072;2022-07-23T10:41:46;35.50;92.80
44573;DHT22;31762;45.420;10.072;2022-07-23T10:47:03;35.70;93.70
44573;DHT22;31762;45.420;10.072;2022-07-23T10:57:19;35.50;93.10
44573;DHT22;31762;45.420;10.072;2022-07-23T11:02:21;36.40;92.80
44573;DHT22;31762;45.420;10.072;2022-07-23T11:07:23;36.00;91.90
44573;DHT22;31762;45.420;10.072;2022-07-23T11:17:31;36.30;91.40
44573;DHT22;31762;45.420;10.072;2022-07-23T11:27:46;36.70;90.70
44573;DHT22;31762;45.420;10.072;2022-07-23T11:32:48;36.50;91.40
44573;DHT22;31762;45.420;10.072;2022-07-23T11:37:51;36.50;90.70
44573;DHT22;31762;45.420;10.072;2022-07-23T11:47:58;36.80;90.60
44573;DHT22;31762;45.420;10.072;2022-07-23T11:53:00;36.80;89.00
44573;DHT22;31762;45.420;10.072;2022-07-23T11:58:02;36.80;87.50
44573;DHT22;31762;45.420;10.072;2022-07-23T12:03:04;36.80;85.60
44573;DHT22;31762;45.420;10.072;2022-07-23T12:08:08;36.80;86.10
44573;DHT22;31762;45.420;10.072;2022-07-23T12:13:13;37.30;85.60
44573;DHT22;31762;45.420;10.072;2022-07-23T12:18:18;37.70;84.60
44573;DHT22;31762;45.420;10.072;2022-07-23T12:23:23;37.90;83.70
44573;DHT22;31762;45.420;10.072;2022-07-23T12:28:32;37.40;84.70
44573;DHT22;31762;45.420;10.072;2022-07-23T12:33:39;38.30;86.50
44573;DHT22;31762;45.420;10.072;2022-07-23T12:38:42;37.90;84.70
44573;DHT22;31762;45.420;10.072;2022-07-23T12:43:46;37.70;84.00
44573;DHT22;31762;45.420;10.072;2022-07-23T12:53:53;37.30;81.10
44573;DHT22;31762;45.420;10.072;2022-07-23T13:04:13;39.20;80.70
44573;DHT22;31762;45.420;10.072;2022-07-23T13:09:18;38.50;80.70
44573;DHT22;31762;45.420;10.072;2022-07-23T13:14:22;38.60;78.60
44573;DHT22;31762;45.420;10.072;2022-07-23T13:19:25;39.10;78.30
44573;DHT22;31762;45.420;10.072;2022-07-23T13:24:28;38.90;77.10
44573;DHT22;31762;45.420;10.072;2022-07-23T13:29:31;39.10;77.30
44573;DHT22;31762;45.420;10.072;2022-07-23T13:34:34;37.60;79.80
44573;DHT22;31762;45.420;10.072;2022-07-23T13:39:42;37.30;80.60
44573;DHT22;31762;45.420;10.072;2022-07-23T13:44:44;37.70;79.50
44573;DHT22;31762;45.420;10.072;2022-07-23T13:49:49;38.30;77.60
44573;DHT22;31762;45.420;10.072;2022-07-23T13:54:51;39.20;77.50
44573;DHT22;31762;45.420;10.072;2022-07-23T13:59:55;39.60;77.90
44573;DHT22;31762;45.420;10.072;2022-07-23T14:04:57;38.60;73.30
44573;DHT22;31762;45.420;10.072;2022-07-23T14:10:04;38.30;70.10
44573;DHT22;31762;45.420;10.072;2022-07-23T14:15:09;38.60;66.80
44573;DHT22;31762;45.420;10.072;2022-07-23T14:20:15;38.50;71.80
44573;DHT22;31762;45.420;10.072;2022-07-23T14:25:18;38.00;72.40
44573;DHT22;31762;45.420;10.072;2022-07-23T14:30:21;38.00;73.60
44573;DHT22;31762;45.420;10.072;2022-07-23T14:35:24;38.30;75.90
44573;DHT22;31762;45.420;10.072;2022-07-23T14:40:28;38.30;75.80
44573;DHT22;31762;45.420;10.072;2022-07-23T14:45:31;37.10;81.10
44573;DHT22;31762;45.420;10.072;2022-07-23T14:50:34;37.30;81.20
44573;DHT22;31762;45.420;10.072;2022-07-23T14:55:37;37.00;82.70
44573;DHT22;31762;45.420;10.072;2022-07-23T15:00:40;36.10;84.50
44573;DHT22;31762;45.420;10.072;2022-07-23T15:05:44;36.10;84.40
44573;DHT22;31762;45.420;10.072;2022-07-23T15:10:47;36.30;82.30
44573;DHT22;31762;45.420;10.072;2022-07-23T15:15:49;37.40;82.00
44573;DHT22;31762;45.420;10.072;2022-07-23T15:20:57;36.30;82.50
44573;DHT22;31762;45.420;10.072;2022-07-23T15:25:59;35.60;84.00
44573;DHT22;31762;45.420;10.072;2022-07-23T15:31:01;35.50;85.50
44573;DHT22;31762;45.420;10.072;2022-07-23T15:36:04;36.30;84.00
44573;DHT22;31762;45.420;10.072;2022-07-23T15:41:06;36.30;83.40
44573;DHT22;31762;45.420;10.072;2022-07-23T15:46:09;36.90;82.90
44573;DHT22;31762;45.420;10.072;2022-07-23T15:51:11;36.50;81.70
44573;DHT22;31762;45.420;10.072;2022-07-23T15:56:13;36.80;84.30
44573;DHT22;31762;45.420;10.072;2022-07-23T16:01:17;36.50;82.80
44573;DHT22;31762;45.420;10.072;2022-07-23T16:06:19;36.10;85.40
44573;DHT22;31762;45.420;10.072;2022-07-23T16:11:21;36.80;88.50
44573;DHT22;31762;45.420;10.072;2022-07-23T16:16:23;36.50;89.80
44573;DHT22;31762;45.420;10.072;2022-07-23T16:21:25;36.30;90.70
44573;DHT22;31762;45.420;10.072;2022-07-23T16:26:27;35.50;90.70
44573;DHT22;31762;45.420;10.072;2022-07-23T16:31:29;35.60;90.80
44573;DHT22;31762;45.420;10.072;2022-07-23T16:36:31;35.40;91.60
44573;DHT22;31762;45.420;10.072;2022-07-23T16:41:32;35.30;92.00
44573;DHT22;31762;45.420;10.072;2022-07-23T16:46:34;35.20;92.90
44573;DHT22;31762;45.420;10.072;2022-07-23T16:51:38;35.00;93.70
44573;DHT22;31762;45.420;10.072;2022-07-23T16:56:40;34.70;94.60
44573;DHT22;31762;45.420;10.072;2022-07-23T17:01:42;34.70;95.90
44573;DHT22;31762;45.420;10.072;2022-07-23T17:06:43;34.40;97.60
44573;DHT22;31762;45.420;10.072;2022-07-23T17:11:45;34.40;98.90
44573;DHT22;31762;45.420;10.072;2022-07-23T17:16:47;34.50;99.90
44573;DHT22;31762;45.420;10.072;2022-07-23T17:21:49;34.20;99.90
44573;DHT22;31762;45.420;10.072;2022-07-23T17:26:52;34.00;99.90
44573;DHT22;31762;45.420;10.072;2022-07-23T17:31:53;33.80;99.90
44573;DHT22;31762;45.420;10.072;2022-07-23T17:36:55;33.80;99.90
44573;DHT22;31762;45.420;10.072;2022-07-23T17:41:57;33.80;99.90
44573;DHT22;31762;45.420;10.072;2022-07-23T17:46:59;34.10;99.90
44573;DHT22;31762;45.420;10.072;2022-07-23T17:52:02;34.00;99.90
44573;DHT22;31762;45.420;10.072;2022-07-23T17:57:04;34.00;99.90
44573;DHT22;31762;45.420;10.072;2022-07-23T18:02:07;34.00;99.90
44573;DHT22;31762;45.420;10.072;2022-07-23T18:07:09;33.90;99.90
44573;DHT22;31762;45.420;10.072;2022-07-23T18:12:11;33.80;99.90
44573;DHT22;31762;45.420;10.072;2022-07-23T18:17:13;33.60;99.90
44573;DHT22;31762;45.420;10.072;2022-07-23T18:22:15;33.50;99.90
44573;DHT22;31762;45.420;10.072;2022-07-23T18:27:16;33.30;99.90
44573;DHT22;31762;45.420;10.072;2022-07-23T18:32:18;33.20;99.90
44573;DHT22;31762;45.420;10.072;2022-07-23T18:37:20;33.30;99.90
44573;DHT22;31762;45.420;10.072;2022-07-23T18:42:38;33.20;99.90
44573;DHT22;31762;45.420;10.072;2022-07-23T18:47:40;32.90;99.90
44573;DHT22;31762;45.420;10.072;2022-07-23T18:52:42;33.10;99.90
44573;DHT22;31762;45.420;10.072;2022-07-23T18:57:44;32.90;99.90
44573;DHT22;31762;45.420;10.072;2022-07-23T19:02:46;32.90;99.90
44573;DHT22;31762;45.420;10.072;2022-07-23T19:07:48;32.70;99.90
44573;DHT22;31762;45.420;10.072;2022-07-23T19:12:49;32.50;99.90
44573;DHT22;31762;45.420;10.072;2022-07-23T19:17:51;32.60;99.90
44573;DHT22;31762;45.420;10.072;2022-07-23T19:22:53;32.50;99.90
44573;DHT22;31762;45.420;10.072;2022-07-23T19:27:55;32.50;99.90
44573;DHT22;31762;45.420;10.072;2022-07-23T19:32:56;32.10;99.90
44573;DHT22;31762;45.420;10.072;2022-07-23T19:37:58;32.00;99.90
44573;DHT22;31762;45.420;10.072;2022-07-23T19:43:00;31.90;99.90
44573;DHT22;31762;45.420;10.072;2022-07-23T19:48:02;31.70;99.90
44573;DHT22;31762;45.420;10.072;2022-07-23T19:53:04;31.60;99.90
44573;DHT22;31762;45.420;10.072;2022-07-23T19:58:07;31.70;99.90
44573;DHT22;31762;45.420;10.072;2022-07-23T20:03:09;31.50;99.90
44573;DHT22;31762;45.420;10.072;2022-07-23T20:08:11;31.50;99.90
44573;DHT22;31762;45.420;10.072;2022-07-23T20:13:18;31.40;99.90
44573;DHT22;31762;45.420;10.072;2022-07-23T20:18:20;31.40;99.90
44573;DHT22;31762;45.420;10.072;2022-07-23T20:23:22;31.20;99.90
44573;DHT22;31762;45.420;10.072;2022-07-23T20:28:25;31.00;99.90
44573;DHT22;31762;45.420;10.072;2022-07-23T20:33:26;31.00;99.90
44573;DHT22;31762;45.420;10.072;2022-07-23T20:38:34;30.80;99.90
44573;DHT22;31762;45.420;10.072;2022-07-23T20:43:35;30.90;99.90
44573;DHT22;31762;45.420;10.072;2022-07-23T20:48:37;30.60;99.90
44573;DHT22;31762;45.420;10.072;2022-07-23T20:53:39;30.60;99.90
44573;DHT22;31762;45.420;10.072;2022-07-23T20:58:41;30.50;99.90
44573;DHT22;31762;45.420;10.072;2022-07-23T21:03:43;30.70;99.90
44573;DHT22;31762;45.420;10.072;2022-07-23T21:08:45;30.80;99.90
44573;DHT22;31762;45.420;10.072;2022-07-23T21:13:47;30.80;99.90
44573;DHT22;31762;45.420;10.072;2022-07-23T21:18:49;30.90;99.90
44573;DHT22;31762;45.420;10.072;2022-07-23T21:23:50;30.80;99.90
44573;DHT22;31762;45.420;10.072;2022-07-23T21:28:52;30.40;99.90
44573;DHT22;31762;45.420;10.072;2022-07-23T21:33:54;30.40;99.90
44573;DHT22;31762;45.420;10.072;2022-07-23T21:38:56;30.50;99.90
44573;DHT22;31762;45.420;10.072;2022-07-23T21:43:58;30.30;99.90
44573;DHT22;31762;45.420;10.072;2022-07-23T21:49:02;30.30;99.90
44573;DHT22;31762;45.420;10.072;2022-07-23T21:54:04;30.40;99.90
44573;DHT22;31762;45.420;10.072;2022-07-23T21:59:07;30.20;99.90
44573;DHT22;31762;45.420;10.072;2022-07-23T22:04:09;30.20;99.90
44573;DHT22;31762;45.420;10.072;2022-07-23T22:09:11;30.20;99.90
44573;DHT22;31762;45.420;10.072;2022-07-23T22:14:13;30.10;99.90
44573;DHT22;31762;45.420;10.072;2022-07-23T22:19:14;30.20;99.90
44573;DHT22;31762;45.420;10.072;2022-07-23T22:24:17;30.10;99.90
44573;DHT22;31762;45.420;10.072;2022-07-23T22:29:19;30.00;99.90
44573;DHT22;31762;45.420;10.072;2022-07-23T22:34:23;29.70;99.90
44573;DHT22;31762;45.420;10.072;2022-07-23T22:39:25;29.60;99.90
44573;DHT22;31762;45.420;10.072;2022-07-23T22:44:27;29.20;99.90
44573;DHT22;31762;45.420;10.072;2022-07-23T22:49:29;29.00;99.90
44573;DHT22;31762;45.420;10.072;2022-07-23T22:54:31;28.90;99.90
44573;DHT22;31762;45.420;10.072;2022-07-23T22:59:33;29.00;99.90
44573;DHT22;31762;45.420;10.072;2022-07-23T23:04:36;29.30;99.90
44573;DHT22;31762;45.420;10.072;2022-07-23T23:09:37;29.30;99.90
44573;DHT22;31762;45.420;10.072;2022-07-23T23:14:39;29.30;99.90
44573;DHT22;31762;45.420;10.072;2022-07-23T23:19:41;29.30;99.90
44573;DHT22;31762;45.420;10.072;2022-07-23T23:24:43;29.20;99.90
44573;DHT22;31762;45.420;10.072;2022-07-23T23:29:44;29.10;99.90
44573;DHT22;31762;45.420;10.072;2022-07-23T23:34:50;29.10;99.90
44573;DHT22;31762;45.420;10.072;2022-07-23T23:39:52;29.20;99.90
44573;DHT22;31762;45.420;10.072;2022-07-23T23:44:54;29.50;99.90
44573;DHT22;31762;45.420;10.072;2022-07-23T23:49:55;29.70;99.90
44573;DHT22;31762;45.420;10.072;2022-07-23T23:54:57;29.60;99.90
44573;DHT22;31762;45.420;10.072;2022-07-23T23:59:59;29.30;99.90
